createdAt,value
2023-05-13T00:02:12.168Z,59.82
2023-05-13T00:04:39.902Z,60.28
2023-05-13T00:07:07.581Z,59.97
2023-05-13T00:09:35.278Z,59.95
2023-05-13T00:12:04.505Z,60.08
2023-05-13T00:14:32.248Z,59.94
2023-05-13T00:17:02.110Z,60.16
2023-05-13T00:19:32.576Z,60.41
2023-05-13T00:22:00.424Z,60.07
2023-05-13T00:24:28.200Z,60.53
2023-05-13T00:26:55.853Z,60.49
2023-05-13T00:29:24.873Z,60.33
2023-05-13T00:31:52.892Z,60.16
2023-05-13T00:34:20.704Z,60.38
2023-05-13T00:36:48.430Z,60.07
2023-05-13T00:39:16.165Z,60.26
2023-05-13T00:41:43.889Z,60.53
2023-05-13T00:44:13.296Z,60.58
2023-05-13T00:46:43.558Z,60.88
2023-05-13T00:49:11.307Z,60.94
2023-05-13T00:51:39.051Z,60.51
2023-05-13T00:54:06.807Z,60.96
2023-05-13T00:56:34.507Z,60.75
2023-05-13T00:59:02.241Z,60.59
2023-05-13T01:01:33.580Z,60.71
2023-05-13T01:04:08.501Z,60.68
2023-05-13T01:06:41.578Z,60.41
2023-05-13T01:09:12.161Z,60.21
2023-05-13T01:11:41.229Z,60.26
2023-05-13T01:14:11.173Z,60.46
2023-05-13T01:16:41.198Z,60.02
2023-05-13T01:19:34.420Z,59.91
2023-05-13T01:22:03.449Z,60.34
2023-05-13T01:24:31.257Z,60.22
2023-05-13T01:26:59.222Z,59.90
2023-05-13T01:29:26.999Z,59.88
2023-05-13T01:31:54.790Z,60.23
2023-05-13T01:34:22.514Z,60.30
2023-05-13T01:36:50.190Z,59.77
2023-05-13T01:39:19.557Z,60.02
2023-05-13T01:41:47.345Z,59.73
2023-05-13T01:44:15.682Z,60.40
2023-05-13T01:46:44.113Z,60.29
2023-05-13T01:49:11.962Z,60.47
2023-05-13T01:51:41.267Z,60.49
2023-05-13T01:54:08.960Z,60.13
2023-05-13T01:56:38.651Z,60.50
2023-05-13T01:59:06.379Z,60.40
2023-05-13T02:01:34.114Z,60.02
2023-05-13T02:04:01.893Z,60.53
2023-05-13T02:06:29.609Z,60.88
2023-05-13T02:08:57.287Z,60.47
2023-05-13T02:11:25.024Z,61.06
2023-05-13T02:13:54.149Z,60.89
2023-05-13T02:16:23.188Z,60.58
2023-05-13T02:18:51.449Z,60.92
2023-05-13T02:21:19.288Z,61.07
2023-05-13T02:23:47.036Z,61.11
2023-05-13T02:26:14.694Z,60.68
2023-05-13T02:28:42.495Z,60.62
2023-05-13T02:31:11.504Z,60.64
2023-05-13T02:33:39.154Z,61.14
2023-05-13T02:36:07.317Z,60.55
2023-05-13T02:38:35.038Z,60.60
2023-05-13T02:41:02.757Z,61.08
2023-05-13T02:43:30.460Z,61.12
2023-05-13T02:45:58.201Z,60.60
2023-05-13T02:48:27.275Z,60.51
2023-05-13T02:50:54.982Z,61.16
2023-05-13T02:53:23.156Z,60.81
2023-05-13T02:55:50.892Z,60.85
2023-05-13T02:58:18.647Z,61.09
2023-05-13T03:00:46.399Z,60.73
2023-05-13T03:03:14.221Z,61.00
2023-05-13T03:05:43.478Z,60.80
2023-05-13T03:08:11.170Z,61.21
2023-05-13T03:10:38.851Z,60.78
2023-05-13T03:13:06.714Z,61.24
2023-05-13T03:15:34.375Z,61.32
2023-05-13T03:18:02.091Z,61.09
2023-05-13T03:20:29.947Z,60.81
2023-05-13T03:22:59.048Z,60.81
2023-05-13T03:25:26.718Z,61.46
2023-05-13T03:27:55.591Z,60.74
2023-05-13T03:30:23.451Z,60.70
2023-05-13T03:32:51.296Z,60.97
2023-05-13T03:35:19.230Z,61.51
2023-05-13T03:37:47.054Z,61.44
2023-05-13T03:40:16.577Z,61.34
2023-05-13T03:42:44.412Z,61.14
2023-05-13T03:45:13.300Z,60.98
2023-05-13T03:47:41.277Z,60.75
2023-05-13T03:50:10.510Z,61.14
2023-05-13T03:52:38.209Z,61.26
2023-05-13T03:55:06.551Z,60.89
2023-05-13T03:57:35.764Z,60.92
2023-05-13T04:00:03.632Z,61.40
2023-05-13T04:02:31.506Z,61.70
2023-05-13T04:04:59.310Z,61.57
2023-05-13T04:07:27.050Z,61.59
2023-05-13T04:09:54.867Z,61.48
2023-05-13T04:12:22.542Z,61.13
2023-05-13T04:14:51.777Z,61.25
2023-05-13T04:17:19.452Z,61.31
2023-05-13T04:19:47.276Z,61.11
2023-05-13T04:22:14.990Z,61.60
2023-05-13T04:24:42.875Z,61.09
2023-05-13T04:27:10.518Z,60.92
2023-05-13T04:29:39.298Z,61.64
2023-05-13T04:32:08.799Z,61.45
2023-05-13T04:34:36.711Z,61.14
2023-05-13T04:37:04.369Z,60.98
2023-05-13T04:39:32.224Z,61.17
2023-05-13T04:41:59.908Z,61.29
2023-05-13T04:44:27.758Z,61.08
2023-05-13T04:46:55.533Z,60.96
2023-05-13T04:49:24.783Z,60.22
2023-05-13T04:51:53.077Z,60.17
2023-05-13T04:54:21.596Z,60.38
2023-05-13T04:56:49.262Z,60.61
2023-05-13T04:59:17.088Z,59.94
2023-05-13T05:01:44.961Z,59.90
2023-05-13T05:04:13.050Z,60.30
2023-05-13T05:09:17.782Z,60.13
2023-05-13T05:11:45.570Z,60.08
2023-05-13T05:14:13.374Z,59.45
2023-05-13T05:16:41.103Z,59.70
2023-05-13T05:19:08.964Z,59.29
2023-05-13T05:21:36.706Z,59.51
2023-05-13T05:24:04.917Z,59.72
2023-05-13T05:26:34.075Z,59.40
2023-05-13T05:29:01.806Z,59.02
2023-05-13T05:31:30.377Z,58.71
2023-05-13T05:33:59.107Z,58.38
2023-05-13T05:36:26.971Z,57.69
2023-05-13T05:38:54.672Z,57.37
2023-05-13T05:41:23.497Z,57.38
2023-05-13T05:43:52.936Z,57.30
2023-05-13T05:46:20.784Z,56.75
2023-05-13T05:48:49.009Z,56.62
2023-05-13T05:51:16.812Z,55.92
2023-05-13T05:53:44.491Z,55.08
2023-05-13T05:56:12.341Z,54.24
2023-05-13T05:58:40.080Z,52.88
2023-05-13T06:01:09.383Z,51.01
2023-05-13T06:03:37.682Z,49.15
2023-05-13T06:06:06.155Z,48.45
2023-05-13T06:08:34.922Z,46.75
2023-05-13T06:11:02.633Z,46.49
2023-05-13T06:13:30.596Z,44.95
2023-05-13T06:15:58.418Z,44.49
2023-05-13T06:18:28.449Z,44.07
2023-05-13T06:20:56.718Z,42.86
2023-05-13T06:23:24.637Z,42.41
2023-05-13T06:25:52.850Z,42.05
2023-05-13T06:28:20.924Z,41.74
2023-05-13T06:30:48.779Z,42.12
2023-05-13T06:33:38.415Z,42.41
2023-05-13T06:36:09.395Z,42.83
2023-05-13T06:38:45.151Z,43.08
2023-05-13T06:41:15.641Z,43.32
2023-05-13T06:43:45.549Z,43.34
2023-05-13T06:46:13.256Z,43.05
2023-05-13T06:48:43.177Z,43.54
2023-05-13T06:51:12.289Z,43.48
2023-05-13T06:54:22.244Z,43.24
2023-05-13T06:56:50.024Z,43.49
2023-05-13T06:59:17.926Z,43.78
2023-05-13T07:01:45.584Z,43.84
2023-05-13T07:04:14.542Z,43.25
2023-05-13T07:06:43.805Z,43.28
2023-05-13T07:09:11.595Z,43.38
2023-05-13T07:11:39.324Z,43.27
2023-05-13T07:14:07.139Z,42.02
2023-05-13T07:16:34.903Z,41.88
2023-05-13T07:19:03.162Z,42.17
2023-05-13T07:21:31.288Z,41.18
2023-05-13T07:24:02.140Z,40.65
2023-05-13T07:26:30.030Z,39.45
2023-05-13T07:28:58.143Z,39.39
2023-05-13T07:31:26.262Z,37.04
2023-05-13T07:33:54.414Z,36.08
2023-05-13T07:36:22.374Z,36.22
2023-05-13T07:38:50.655Z,35.80
2023-05-13T07:41:28.698Z,36.36
2023-05-13T07:43:56.414Z,36.51
2023-05-13T07:46:24.271Z,34.35
2023-05-13T07:48:52.291Z,34.14
2023-05-13T07:51:20.237Z,33.78
2023-05-13T07:53:47.984Z,33.19
2023-05-13T07:56:15.892Z,30.97
2023-05-13T07:58:46.060Z,28.67
2023-05-13T08:01:14.108Z,29.00
2023-05-13T08:03:42.214Z,27.66
2023-05-13T08:06:09.986Z,27.48
2023-05-13T08:08:37.769Z,27.49
2023-05-13T08:11:07.518Z,26.73
2023-05-13T08:13:35.348Z,26.61
2023-05-13T08:16:06.945Z,25.62
2023-05-13T08:18:34.763Z,26.06
2023-05-13T08:21:02.701Z,25.80
2023-05-13T08:23:36.827Z,25.90
2023-05-13T08:26:11.700Z,24.99
2023-05-13T08:28:39.596Z,25.53
2023-05-13T08:31:08.760Z,25.74
2023-05-13T08:33:36.669Z,24.95
2023-05-13T08:36:04.734Z,24.15
2023-05-13T08:38:33.451Z,24.46
2023-05-13T08:41:01.551Z,24.64
2023-05-13T08:43:30.638Z,23.91
2023-05-13T08:45:58.554Z,24.12
2023-05-13T08:48:27.755Z,24.26
2023-05-13T08:50:55.612Z,24.58
2023-05-13T08:53:23.509Z,24.83
2023-05-13T08:55:51.273Z,24.43
2023-05-13T08:58:19.088Z,24.23
2023-05-13T09:00:47.089Z,23.82
2023-05-13T09:03:14.946Z,23.65
2023-05-13T09:05:44.710Z,23.24
2023-05-13T09:08:12.677Z,22.52
2023-05-13T09:10:44.733Z,21.07
2023-05-13T09:13:12.841Z,21.73
2023-05-13T09:18:30.979Z,20.78
2023-05-13T09:21:03.047Z,20.34
2023-05-13T09:23:30.966Z,20.07
2023-05-13T09:25:59.022Z,19.75
2023-05-13T09:28:27.868Z,19.91
2023-05-13T09:30:56.097Z,19.47
2023-05-13T09:33:24.370Z,20.33
2023-05-13T09:35:55.253Z,18.54
2023-05-13T09:38:26.826Z,18.29
2023-05-13T09:41:32.092Z,18.71
2023-05-13T09:43:59.807Z,17.11
2023-05-13T09:46:32.498Z,17.20
2023-05-13T09:49:02.050Z,17.45
2023-05-13T09:51:31.433Z,16.89
2023-05-13T09:54:10.432Z,16.77
2023-05-13T09:57:04.934Z,16.43
2023-05-13T09:59:36.385Z,16.86
2023-05-13T10:02:10.317Z,16.58
2023-05-13T10:04:38.497Z,16.39
2023-05-13T10:07:07.272Z,16.26
2023-05-13T10:10:08.728Z,16.12
2023-05-13T10:13:55.424Z,15.91
2023-05-13T10:19:49.244Z,14.82
2023-05-13T10:22:39.808Z,15.33
2023-05-13T10:25:42.673Z,14.07
2023-05-13T10:31:20.085Z,14.08
2023-05-13T10:33:48.162Z,13.55
2023-05-13T10:36:35.946Z,13.83
2023-05-13T10:39:12.359Z,13.42
2023-05-13T10:42:15.721Z,12.57
2023-05-13T10:44:44.968Z,13.40
2023-05-13T10:47:15.069Z,13.58
2023-05-13T10:49:42.943Z,12.29
2023-05-13T10:52:13.564Z,12.11
2023-05-13T10:54:42.150Z,12.14
2023-05-13T10:57:10.447Z,11.85
2023-05-13T10:59:38.925Z,11.98
2023-05-13T11:02:21.911Z,12.12
2023-05-13T11:04:59.178Z,11.81
2023-05-13T11:09:57.003Z,12.45
2023-05-13T11:12:24.751Z,12.77
2023-05-13T11:14:56.591Z,13.05
2023-05-13T11:17:25.888Z,12.82
2023-05-13T11:19:53.625Z,13.40
2023-05-13T11:22:21.978Z,13.11
2023-05-13T11:25:05.982Z,13.38
2023-05-13T11:27:34.353Z,13.46
2023-05-13T11:30:02.021Z,14.20
2023-05-13T11:33:03.060Z,14.57
2023-05-13T11:35:31.515Z,14.80
2023-05-13T11:38:00.379Z,15.97
2023-05-13T11:40:29.519Z,16.61
2023-05-13T11:42:57.644Z,18.09
2023-05-13T11:45:26.871Z,18.59
2023-05-13T11:47:55.069Z,19.36
2023-05-13T11:50:26.954Z,20.72
2023-05-13T11:52:55.726Z,21.28
2023-05-13T11:55:27.054Z,21.27
2023-05-13T11:57:57.034Z,21.38
2023-05-13T12:00:27.979Z,21.64
2023-05-13T12:02:55.840Z,21.90
2023-05-13T12:05:25.490Z,21.34
2023-05-13T12:07:53.513Z,21.60
2023-05-13T12:10:21.366Z,22.83
2023-05-13T12:12:49.096Z,23.33
2023-05-13T12:15:17.614Z,23.54
2023-05-13T12:17:45.550Z,23.14
2023-05-13T12:20:14.611Z,22.24
2023-05-13T12:22:54.488Z,22.70
2023-05-13T12:25:41.974Z,22.35
2023-05-13T12:28:16.518Z,22.08
2023-05-13T12:30:51.248Z,22.54
2023-05-13T12:33:21.025Z,21.38
2023-05-13T12:35:49.463Z,21.20
2023-05-13T12:38:19.964Z,21.99
2023-05-13T12:40:48.051Z,21.36
2023-05-13T12:43:16.831Z,21.20
2023-05-13T12:45:45.825Z,20.82
2023-05-13T12:48:14.663Z,20.31
2023-05-13T12:50:43.428Z,20.53
2023-05-13T12:53:11.239Z,20.25
2023-05-13T12:55:40.831Z,20.08
2023-05-13T12:58:10.984Z,20.41
2023-05-13T13:00:39.334Z,20.80
2023-05-13T13:03:11.721Z,21.09
2023-05-13T13:05:39.650Z,20.67
2023-05-13T13:08:07.419Z,20.37
2023-05-13T13:10:36.423Z,20.77
2023-05-13T13:13:07.633Z,20.57
2023-05-13T13:15:35.418Z,20.42
2023-05-13T13:18:04.644Z,20.53
2023-05-13T13:20:34.456Z,21.14
2023-05-13T13:23:02.250Z,20.73
2023-05-13T13:25:30.352Z,20.87
2023-05-13T13:28:02.007Z,21.30
2023-05-13T13:30:31.448Z,22.08
2023-05-13T13:32:59.239Z,22.19
2023-05-13T13:35:27.161Z,22.42
2023-05-13T13:37:56.020Z,22.49
2023-05-13T13:40:24.259Z,22.63
2023-05-13T13:42:52.537Z,22.64
2023-05-13T13:45:24.000Z,23.34
2023-05-13T13:47:53.130Z,23.15
2023-05-13T13:50:21.129Z,23.07
2023-05-13T13:52:49.075Z,22.61
2023-05-13T13:55:16.937Z,22.51
2023-05-13T13:57:44.838Z,21.92
2023-05-13T14:00:14.347Z,22.36
2023-05-13T14:02:42.186Z,22.98
2023-05-13T14:05:12.149Z,22.49
2023-05-13T14:07:40.024Z,22.33
2023-05-13T14:10:09.341Z,22.19
2023-05-13T14:12:37.360Z,22.85
2023-05-13T14:15:05.927Z,22.66
2023-05-13T14:17:34.092Z,22.37
2023-05-13T14:20:01.916Z,22.60
2023-05-13T14:22:31.346Z,22.60
2023-05-13T14:25:02.408Z,22.95
2023-05-13T14:31:11.207Z,23.75
2023-05-13T14:34:00.507Z,23.38
2023-05-13T14:36:28.300Z,23.21
2023-05-13T14:38:57.609Z,23.81
2023-05-13T14:41:25.712Z,23.57
2023-05-13T14:43:56.096Z,24.16
2023-05-13T14:46:23.914Z,24.13
2023-05-13T14:48:52.243Z,25.06
2023-05-13T14:51:19.994Z,26.21
2023-05-13T14:53:47.939Z,27.87
2023-05-13T14:56:17.119Z,30.42
2023-05-13T14:58:45.029Z,31.46
2023-05-13T15:01:12.833Z,32.35
2023-05-13T15:03:41.075Z,34.23
2023-05-13T15:06:09.115Z,35.21
2023-05-13T15:08:37.876Z,35.93
2023-05-13T15:11:06.046Z,36.36
2023-05-13T15:13:36.754Z,37.91
2023-05-13T15:16:04.629Z,37.92
2023-05-13T15:18:32.479Z,38.93
2023-05-13T15:21:00.302Z,39.44
2023-05-13T15:23:28.069Z,39.57
2023-05-13T15:25:55.812Z,39.55
2023-05-13T15:28:23.658Z,40.01
2023-05-13T15:30:52.920Z,40.62
2023-05-13T15:33:20.746Z,42.21
2023-05-13T15:35:48.635Z,41.95
2023-05-13T15:38:16.897Z,42.53
2023-05-13T15:40:47.306Z,42.31
2023-05-13T15:43:15.044Z,41.44
2023-05-13T15:45:43.303Z,41.46
2023-05-13T15:48:12.364Z,42.16
2023-05-13T15:50:40.323Z,42.77
2023-05-13T15:53:08.126Z,43.63
2023-05-13T15:55:37.382Z,43.61
2023-05-13T15:58:05.156Z,43.82
2023-05-13T16:00:33.187Z,43.77
2023-05-13T16:03:01.130Z,43.96
2023-05-13T16:05:32.409Z,44.67
2023-05-13T16:08:00.212Z,44.95
2023-05-13T16:10:27.984Z,45.30
2023-05-13T16:12:55.854Z,45.63
2023-05-13T16:15:23.812Z,45.77
2023-05-13T16:17:51.616Z,44.98
2023-05-13T16:20:19.576Z,44.91
2023-05-13T16:22:49.090Z,44.60
2023-05-13T16:25:17.203Z,45.26
2023-05-13T16:28:06.719Z,45.14
2023-05-13T16:30:34.636Z,44.81
2023-05-13T16:33:02.834Z,44.89
2023-05-13T16:35:31.627Z,45.02
2023-05-13T16:38:00.753Z,44.69
2023-05-13T16:40:28.689Z,44.51
2023-05-13T16:42:59.256Z,44.04
2023-05-13T16:45:29.148Z,43.48
2023-05-13T16:47:57.228Z,43.36
2023-05-13T16:50:25.856Z,43.21
2023-05-13T16:52:54.617Z,42.61
2023-05-13T16:55:25.945Z,43.00
2023-05-13T16:57:53.875Z,42.50
2023-05-13T17:00:21.976Z,41.42
2023-05-13T17:02:50.121Z,40.62
2023-05-13T17:05:18.620Z,39.29
2023-05-13T17:07:46.602Z,39.57
2023-05-13T17:10:14.828Z,40.40
2023-05-13T17:13:07.527Z,40.70
2023-05-13T17:15:36.552Z,41.75
2023-05-13T17:18:04.936Z,39.25
2023-05-13T17:20:32.858Z,37.74
2023-05-13T17:23:00.677Z,38.38
2023-05-13T17:25:28.429Z,36.65
2023-05-13T17:27:56.494Z,36.71
2023-05-13T17:30:26.062Z,37.67
2023-05-13T17:32:54.025Z,37.27
2023-05-13T17:35:21.981Z,37.22
2023-05-13T17:37:52.691Z,37.34
2023-05-13T17:40:24.040Z,37.57
2023-05-13T17:42:54.998Z,37.71
2023-05-13T17:45:28.589Z,37.79
2023-05-13T17:47:59.333Z,37.58
2023-05-13T17:50:29.914Z,37.73
2023-05-13T17:52:59.746Z,37.64
2023-05-13T17:55:27.570Z,38.53
2023-05-13T17:57:59.049Z,39.32
2023-05-13T18:00:28.982Z,40.04
2023-05-13T18:02:56.835Z,39.20
2023-05-13T18:05:28.967Z,40.82
2023-05-13T18:08:00.595Z,40.66
2023-05-13T18:10:30.157Z,41.34
2023-05-13T18:13:04.330Z,42.17
2023-05-13T18:15:33.844Z,41.54
2023-05-13T18:18:09.273Z,42.35
2023-05-13T18:20:39.953Z,42.18
2023-05-13T18:23:09.045Z,42.93
2023-05-13T18:25:48.495Z,43.23
2023-05-13T18:28:22.577Z,42.95
2023-05-13T18:30:51.880Z,43.42
2023-05-13T18:33:21.520Z,43.53
2023-05-13T18:35:49.691Z,43.89
2023-05-13T18:38:19.696Z,44.19
2023-05-13T18:40:47.666Z,44.45
2023-05-13T18:43:15.563Z,44.80
2023-05-13T18:45:44.673Z,44.66
2023-05-13T18:48:14.015Z,45.43
2023-05-13T18:50:43.087Z,45.84
2023-05-13T18:53:10.944Z,46.11
2023-05-13T18:55:48.487Z,46.23
2023-05-13T18:58:16.793Z,46.39
2023-05-13T19:00:47.811Z,46.15
2023-05-13T19:03:17.120Z,45.74
2023-05-13T19:06:01.074Z,46.09
2023-05-13T19:08:45.612Z,46.55
2023-05-13T19:11:13.829Z,46.64
2023-05-13T19:13:47.486Z,47.04
2023-05-13T19:16:16.235Z,47.37
2023-05-13T19:18:45.613Z,47.69
2023-05-13T19:21:13.527Z,48.31
2023-05-13T19:23:41.609Z,48.15
2023-05-13T19:26:10.525Z,48.52
2023-05-13T19:28:39.056Z,48.97
2023-05-13T19:31:07.794Z,48.58
2023-05-13T19:33:37.107Z,48.35
2023-05-13T19:36:07.627Z,48.04
2023-05-13T19:38:36.626Z,48.58
2023-05-13T19:41:04.760Z,48.75
2023-05-13T19:43:32.618Z,49.11
2023-05-13T19:46:00.582Z,49.54
2023-05-13T19:48:31.419Z,49.52
2023-05-13T19:50:59.290Z,49.22
2023-05-13T19:53:30.725Z,49.47
2023-05-13T19:56:07.954Z,49.58
2023-05-13T19:58:38.908Z,49.82
2023-05-13T20:01:07.038Z,50.12
2023-05-13T20:03:34.835Z,49.95
2023-05-13T20:06:02.890Z,50.07
2023-05-13T20:08:33.505Z,50.49
2023-05-13T20:11:01.800Z,50.06
2023-05-13T20:13:29.567Z,50.53
2023-05-13T20:15:57.428Z,50.46
2023-05-13T20:18:25.748Z,51.07
2023-05-13T20:20:54.027Z,50.90
2023-05-13T20:23:21.818Z,51.35
2023-05-13T20:25:51.094Z,51.33
2023-05-13T20:28:19.380Z,51.60
2023-05-13T20:30:47.487Z,51.73
2023-05-13T20:33:17.880Z,52.14
2023-05-13T20:35:45.784Z,52.02
2023-05-13T20:38:13.793Z,51.78
2023-05-13T20:40:42.035Z,51.96
2023-05-13T20:43:16.730Z,52.06
2023-05-13T20:45:44.627Z,52.53
2023-05-13T20:48:13.633Z,52.33
2023-05-13T20:50:41.640Z,52.83
2023-05-13T20:53:09.463Z,53.07
2023-05-13T20:55:37.454Z,53.32
2023-05-13T20:58:05.682Z,53.43
2023-05-13T21:00:34.951Z,53.74
2023-05-13T21:03:03.391Z,53.63
2023-05-13T21:05:31.700Z,53.07
2023-05-13T21:07:59.832Z,53.00
2023-05-13T21:10:33.686Z,53.22
2023-05-13T21:13:01.986Z,53.35
2023-05-13T21:15:29.913Z,53.57
2023-05-13T21:17:59.235Z,53.63
2023-05-13T21:20:27.155Z,54.06
2023-05-13T21:22:54.959Z,53.89
2023-05-13T21:25:22.863Z,53.68
2023-05-13T21:27:50.996Z,53.82
2023-05-13T21:30:18.951Z,54.07
2023-05-13T21:32:46.767Z,53.88
2023-05-13T21:35:17.023Z,54.18
2023-05-13T21:37:47.195Z,54.32
2023-05-13T21:40:15.675Z,54.04
2023-05-13T21:42:43.702Z,54.22
2023-05-13T21:45:12.862Z,54.00
2023-05-13T21:47:41.113Z,53.86
2023-05-13T21:50:10.786Z,53.67
2023-05-13T21:52:40.434Z,54.17
2023-05-13T21:55:08.915Z,53.99
2023-05-13T21:57:36.674Z,54.40
2023-05-13T22:00:07.330Z,54.53
2023-05-13T22:02:37.291Z,54.63
2023-05-13T22:05:05.429Z,54.94
2023-05-13T22:07:33.274Z,55.26
2023-05-13T22:10:02.436Z,55.15
2023-05-13T22:12:30.351Z,55.34
2023-05-13T22:14:58.125Z,55.41
2023-05-13T22:17:26.011Z,55.24
2023-05-13T22:19:53.970Z,55.39
2023-05-13T22:22:22.038Z,55.42
2023-05-13T22:24:51.633Z,55.64
2023-05-13T22:27:21.458Z,55.69
2023-05-13T22:29:51.946Z,55.54
2023-05-13T22:32:19.768Z,55.74
2023-05-13T22:34:47.510Z,56.12
2023-05-13T22:37:15.792Z,55.89
2023-05-13T22:39:43.765Z,56.16
2023-05-13T22:42:11.513Z,56.29
2023-05-13T22:44:40.652Z,56.50
2023-05-13T22:47:08.867Z,56.33
2023-05-13T22:49:36.574Z,56.64
2023-05-13T22:52:04.782Z,56.74
2023-05-13T22:54:32.686Z,56.49
2023-05-13T22:57:00.366Z,56.78
2023-05-13T22:59:28.419Z,56.94
2023-05-13T23:01:57.734Z,56.82
2023-05-13T23:04:26.166Z,57.03
